Time;durP1;ratioP1;P1;durP2;ratioP2;P2;SDS_P1;SDS_P2;PMS_P1;PMS_P2;Temp;Humidity;BMP_temperature;BMP_pressure;BME280_temperature;BME280_humidity;BME280_pressure;Samples;Min_cycle;Max_cycle;Signal;HPM_P1;HPM_P2
2023/12/19 00:01:03;;;;;;;3.57;2.43;;;22.30;46.20;;;;;;3070245;28;20462;-47
2023/12/19 00:02:36;;;;;;;2.63;2.40;;;22.30;46.10;;;;;;3072270;28;20378;-48
2023/12/19 00:04:07;;;;;;;2.45;2.20;;;22.30;46.20;;;;;;3068972;29;20079;-48
2023/12/19 00:05:40;;;;;;;2.97;2.17;;;22.30;46.00;;;;;;3069722;28;20047;-47
2023/12/19 00:07:10;;;;;;;2.30;2.10;;;22.40;45.80;;;;;;3069548;29;20058;-49
2023/12/19 00:08:42;;;;;;;2.72;2.28;;;22.40;45.90;;;;;;3073098;28;20051;-48
2023/12/19 00:10:13;;;;;;;2.40;2.20;;;22.30;45.90;;;;;;3071741;28;20051;-47
2023/12/19 00:11:44;;;;;;;4.05;2.40;;;22.30;46.00;;;;;;3071806;29;20050;-48
2023/12/19 00:13:15;;;;;;;2.45;2.03;;;22.30;46.00;;;;;;3070129;28;20070;-46
2023/12/19 00:14:47;;;;;;;3.55;2.10;;;22.30;46.00;;;;;;3071806;28;20647;-46
2023/12/19 00:16:17;;;;;;;2.65;2.22;;;22.20;46.10;;;;;;3072472;28;20058;-49
2023/12/19 00:17:50;;;;;;;2.50;2.30;;;22.20;46.10;;;;;;3071376;28;20398;-48
2023/12/19 00:19:21;;;;;;;2.40;2.20;;;22.20;46.10;;;;;;3071329;28;20047;-49
2023/12/19 00:20:53;;;;;;;2.47;2.28;;;22.20;46.00;;;;;;3069223;29;20130;-47
2023/12/19 00:22:24;;;;;;;2.92;2.20;;;22.30;45.90;;;;;;3071523;29;20616;-50
2023/12/19 00:23:56;;;;;;;2.40;2.20;;;22.30;45.90;;;;;;3068470;28;20043;-49
2023/12/19 00:25:29;;;;;;;2.58;2.08;;;22.20;45.70;;;;;;3071181;28;20063;-45
2023/12/19 00:27:01;;;;;;;2.22;2.03;;;22.20;45.80;;;;;;3072680;28;20055;-48
2023/12/19 00:28:32;;;;;;;2.30;2.00;;;22.10;46.20;;;;;;3070697;28;20118;-46
2023/12/19 00:30:04;;;;;;;4.03;2.10;;;22.10;46.00;;;;;;3073125;28;20083;-49
2023/12/19 00:31:35;;;;;;;2.47;2.28;;;22.10;46.20;;;;;;3071152;28;20059;-47
2023/12/19 00:33:08;;;;;;;2.50;2.15;;;22.10;46.20;;;;;;3071968;28;20517;-48
2023/12/19 00:34:38;;;;;;;2.30;2.03;;;22.10;46.00;;;;;;3075157;28;20051;-46
2023/12/19 00:36:10;;;;;;;2.25;2.00;;;22.20;45.80;;;;;;3072414;28;20058;-47
2023/12/19 00:37:41;;;;;;;3.05;2.28;;;22.10;46.00;;;;;;3071818;28;20054;-46
2023/12/19 00:39:12;;;;;;;4.20;2.20;;;22.10;45.90;;;;;;3067077;29;20510;-47
2023/12/19 00:40:44;;;;;;;2.30;2.10;;;22.10;45.90;;;;;;3064883;29;20047;-47
2023/12/19 00:42:15;;;;;;;2.40;2.20;;;22.10;45.80;;;;;;3070055;29;20173;-46
2023/12/19 00:43:47;;;;;;;2.50;2.17;;;22.00;45.70;;;;;;3071659;28;20428;-47
2023/12/19 00:45:18;;;;;;;2.55;2.00;;;22.00;45.90;;;;;;3067765;29;20059;-46
2023/12/19 00:46:49;;;;;;;3.78;2.47;;;22.00;46.00;;;;;;3073528;28;20047;-47
2023/12/19 00:48:22;;;;;;;2.17;1.98;;;22.00;45.90;;;;;;3072105;28;20062;-46
2023/12/19 00:49:54;;;;;;;2.60;1.95;;;22.10;45.60;;;;;;3071213;28;20071;-47
2023/12/19 00:51:24;;;;;;;2.53;2.10;;;22.10;45.60;;;;;;3072244;28;20704;-48
2023/12/19 00:52:56;;;;;;;2.70;2.20;;;22.00;45.70;;;;;;3072021;28;20047;-46
2023/12/19 00:54:27;;;;;;;2.30;2.05;;;21.90;45.90;;;;;;3075210;28;20050;-48
2023/12/19 00:55:58;;;;;;;2.33;2.00;;;21.90;45.90;;;;;;3072417;28;20437;-47
2023/12/19 00:57:29;;;;;;;2.08;1.95;;;22.00;45.70;;;;;;3073261;28;20049;-47
2023/12/19 00:59:01;;;;;;;2.10;1.90;;;22.00;45.70;;;;;;3073282;28;20043;-46
2023/12/19 01:00:31;;;;;;;4.35;2.10;;;21.90;45.80;;;;;;3072158;28;20070;-48
2023/12/19 01:02:03;;;;;;;2.95;2.03;;;21.80;45.90;;;;;;3074812;28;20043;-47
2023/12/19 01:03:35;;;;;;;2.50;1.92;;;21.90;45.90;;;;;;3071708;28;20062;-46
2023/12/19 01:05:07;;;;;;;2.60;2.03;;;21.90;45.80;;;;;;3070672;28;20147;-49
2023/12/19 01:06:38;;;;;;;2.20;2.00;;;21.90;45.70;;;;;;3068665;28;20058;-47
2023/12/19 01:08:10;;;;;;;2.45;2.25;;;21.90;45.80;;;;;;3069667;28;20405;-47
2023/12/19 01:09:40;;;;;;;1.98;1.88;;;21.80;45.90;;;;;;3072005;28;20063;-47
2023/12/19 01:11:12;;;;;;;2.30;2.10;;;21.80;46.00;;;;;;3066706;28;20047;-48
2023/12/19 01:12:43;;;;;;;1.83;1.73;;;21.80;45.90;;;;;;3074934;28;20490;-47
2023/12/19 01:14:14;;;;;;;2.28;2.00;;;21.70;46.50;;;;;;3067022;28;20052;-47
2023/12/19 01:15:45;;;;;;;1.80;1.70;;;21.80;45.80;;;;;;3070817;28;20043;-46
2023/12/19 01:17:17;;;;;;;2.00;1.80;;;21.70;45.90;;;;;;3067852;28;20054;-48
2023/12/19 01:18:49;;;;;;;2.08;1.80;;;21.70;46.00;;;;;;3072183;28;20051;-45
2023/12/19 01:20:20;;;;;;;2.22;1.90;;;21.70;46.00;;;;;;3070429;28;20476;-48
2023/12/19 01:21:51;;;;;;;1.98;1.80;;;21.70;46.00;;;;;;3066644;28;20056;-49
2023/12/19 01:23:23;;;;;;;2.33;2.13;;;21.70;45.90;;;;;;3073359;28;20043;-48
2023/12/19 01:24:53;;;;;;;1.90;1.80;;;21.70;46.00;;;;;;3071579;28;20055;-47
2023/12/19 01:26:25;;;;;;;3.15;2.10;;;21.70;45.90;;;;;;3072143;28;20117;-46
2023/12/19 01:27:56;;;;;;;2.13;1.80;;;21.60;45.90;;;;;;3070303;28;20470;-48
2023/12/19 01:29:27;;;;;;;2.22;1.90;;;21.60;46.10;;;;;;3072868;28;20039;-48
2023/12/19 01:30:59;;;;;;;2.75;1.90;;;21.50;46.20;;;;;;3070654;28;20043;-47
2023/12/19 01:32:29;;;;;;;1.90;1.80;;;21.60;46.10;;;;;;3071455;28;20050;-48
2023/12/19 01:34:02;;;;;;;1.90;1.80;;;21.70;45.90;;;;;;3070415;28;20054;-47
2023/12/19 01:35:34;;;;;;;2.17;1.98;;;21.60;45.90;;;;;;3071502;28;20055;-48
2023/12/19 01:37:05;;;;;;;2.50;2.00;;;21.60;45.90;;;;;;3070944;28;20487;-48
2023/12/19 01:38:36;;;;;;;2.33;1.75;;;21.60;46.00;;;;;;3068235;28;20058;-48
2023/12/19 01:40:08;;;;;;;2.40;1.80;;;21.50;46.00;;;;;;3070528;28;20066;-48
2023/12/19 01:41:40;;;;;;;1.83;1.73;;;21.50;46.00;;;;;;3071648;29;20063;-47
2023/12/19 01:43:18;;;;;;;1.92;1.83;;;21.50;45.90;;;;;;3071341;28;20059;-46
2023/12/19 01:44:58;;;;;;;3.70;2.10;;;21.60;45.80;;;;;;3069982;28;20046;-48
2023/12/19 01:46:28;;;;;;;2.45;2.20;;;21.60;45.80;;;;;;3071095;29;20058;-48
2023/12/19 01:48:00;;;;;;;3.00;2.10;;;21.50;45.90;;;;;;3069182;28;20046;-47
2023/12/19 01:49:32;;;;;;;2.60;2.10;;;21.50;45.80;;;;;;3066076;28;20426;-47
2023/12/19 01:51:04;;;;;;;2.20;2.00;;;21.50;45.90;;;;;;3071512;28;20050;-46
2023/12/19 01:52:35;;;;;;;1.70;1.60;;;21.50;45.80;;;;;;3073315;28;20050;-47
2023/12/19 01:54:07;;;;;;;2.08;1.80;;;21.50;46.00;;;;;;3066759;28;20145;-47
2023/12/19 01:55:38;;;;;;;2.00;1.80;;;21.50;45.80;;;;;;3072340;28;20432;-47
2023/12/19 01:57:11;;;;;;;2.20;1.80;;;21.50;45.90;;;;;;3074021;28;20046;-46
2023/12/19 01:58:42;;;;;;;2.95;1.90;;;21.40;45.80;;;;;;3071275;28;20082;-47
2023/12/19 02:00:14;;;;;;;1.73;1.60;;;21.40;45.90;;;;;;3070960;28;20414;-48
2023/12/19 02:01:45;;;;;;;2.00;1.80;;;21.30;46.10;;;;;;3072985;28;20051;-48
2023/12/19 02:03:16;;;;;;;2.47;1.85;;;21.40;46.00;;;;;;3069470;28;20050;-46
2023/12/19 02:04:48;;;;;;;2.45;1.70;;;21.40;45.90;;;;;;3073868;28;20074;-45
2023/12/19 02:06:20;;;;;;;1.92;1.70;;;21.40;45.90;;;;;;3071334;28;20055;-47
2023/12/19 02:07:51;;;;;;;2.10;1.90;;;21.20;46.10;;;;;;3072763;28;20417;-48
2023/12/19 02:09:23;;;;;;;2.00;1.80;;;21.20;46.10;;;;;;3068917;28;20047;-49
2023/12/19 02:10:53;;;;;;;1.80;1.70;;;21.20;46.10;;;;;;3068720;28;20501;-47
2023/12/19 02:12:25;;;;;;;1.90;1.70;;;21.20;46.10;;;;;;3069927;28;20047;-46
2023/12/19 02:13:56;;;;;;;1.90;1.70;;;21.20;46.10;;;;;;3069110;29;20047;-45
2023/12/19 02:15:28;;;;;;;2.25;1.80;;;21.20;46.10;;;;;;3072063;28;20073;-48
2023/12/19 02:16:59;;;;;;;2.60;1.70;;;21.20;45.90;;;;;;3070825;28;20484;-48
2023/12/19 02:18:31;;;;;;;1.70;1.60;;;21.30;45.80;;;;;;3069134;28;20043;-50
2023/12/19 02:20:04;;;;;;;2.63;1.70;;;21.30;45.80;;;;;;3065676;28;20062;-47
2023/12/19 02:21:35;;;;;;;;;;;21.30;45.80;;;;;;3067338;28;20154;-47
2023/12/19 02:23:07;;;;;;;3.25;1.90;;;21.20;45.90;;;;;;3067767;28;19929;-47
2023/12/19 02:24:39;;;;;;;2.03;1.83;;;21.20;45.90;;;;;;3066331;29;20051;-47
2023/12/19 02:26:09;;;;;;;2.03;1.77;;;21.20;45.90;;;;;;3069449;28;20047;-47
2023/12/19 02:27:41;;;;;;;2.00;1.88;;;21.20;46.00;;;;;;3067676;28;20095;-45
2023/12/19 02:29:13;;;;;;;1.85;1.73;;;21.20;46.00;;;;;;3069655;28;20046;-46
2023/12/19 02:30:43;;;;;;;2.00;1.80;;;21.20;45.90;;;;;;3073290;28;20039;-47
2023/12/19 02:32:15;;;;;;;1.73;1.63;;;21.20;45.90;;;;;;3070339;28;20063;-46
2023/12/19 02:33:46;;;;;;;1.70;1.60;;;21.10;46.00;;;;;;3072874;29;20063;-48
2023/12/19 02:35:17;;;;;;;1.73;1.60;;;21.00;46.10;;;;;;3070947;28;20054;-47
2023/12/19 02:36:48;;;;;;;2.15;1.90;;;21.10;46.10;;;;;;3072474;28;20055;-47
2023/12/19 02:38:21;;;;;;;1.83;1.70;;;21.10;46.00;;;;;;3072732;28;20513;-49
2023/12/19 02:39:52;;;;;;;1.73;1.63;;;21.10;45.90;;;;;;3074621;28;20051;-46
2023/12/19 02:41:23;;;;;;;2.05;1.85;;;21.10;46.00;;;;;;3074673;28;20043;-47
2023/12/19 02:42:54;;;;;;;2.22;1.83;;;21.10;46.10;;;;;;3073219;28;20055;-47
2023/12/19 02:44:25;;;;;;;1.70;1.60;;;21.10;46.10;;;;;;3073966;28;20039;-49
2023/12/19 02:45:56;;;;;;;2.30;1.60;;;21.00;46.10;;;;;;3071544;28;20047;-47
2023/12/19 02:47:28;;;;;;;1.50;1.40;;;21.00;46.80;;;;;;3073220;28;20039;-48
2023/12/19 02:48:58;;;;;;;1.80;1.70;;;21.00;45.90;;;;;;3073113;29;20138;-48
2023/12/19 02:50:30;;;;;;;1.48;1.38;;;21.10;45.90;;;;;;3075721;28;20497;-47
2023/12/19 02:52:00;;;;;;;2.35;1.70;;;21.00;45.90;;;;;;3072120;28;20058;-47
2023/12/19 02:53:34;;;;;;;2.00;1.80;;;21.00;46.10;;;;;;3072969;28;20066;-47
2023/12/19 02:55:05;;;;;;;2.10;1.60;;;21.00;46.10;;;;;;3076429;28;20639;-49
2023/12/19 02:56:37;;;;;;;1.80;1.70;;;21.00;46.00;;;;;;3072211;28;20040;-48
2023/12/19 02:58:07;;;;;;;1.70;1.60;;;20.90;46.10;;;;;;3079148;28;20062;-47
2023/12/19 02:59:39;;;;;;;1.77;1.67;;;21.00;46.10;;;;;;3076121;28;20055;-47
2023/12/19 03:01:10;;;;;;;1.98;1.77;;;20.80;46.20;;;;;;3071640;28;20055;-47
2023/12/19 03:02:43;;;;;;;1.85;1.75;;;20.90;46.20;;;;;;3073184;28;20690;-49
2023/12/19 03:04:14;;;;;;;1.38;1.27;;;20.90;46.10;;;;;;3071151;28;20062;-47
2023/12/19 03:05:45;;;;;;;1.80;1.70;;;21.00;45.90;;;;;;3072254;29;20414;-47
2023/12/19 03:07:16;;;;;;;1.85;1.65;;;21.00;45.90;;;;;;3071963;28;20062;-48
2023/12/19 03:08:50;;;;;;;1.70;1.60;;;20.90;46.00;;;;;;3069508;28;20078;-49
2023/12/19 03:10:21;;;;;;;1.60;1.48;;;20.90;46.10;;;;;;3074494;28;20051;-47
2023/12/19 03:12:00;;;;;;;1.50;1.40;;;20.90;46.10;;;;;;3071822;28;20483;-47
2023/12/19 03:13:30;;;;;;;1.65;1.55;;;20.80;46.30;;;;;;3070435;28;20062;-47
2023/12/19 03:15:02;;;;;;;1.60;1.50;;;20.80;46.10;;;;;;3073629;29;20038;-47
2023/12/19 03:16:33;;;;;;;1.90;1.60;;;20.80;46.10;;;;;;3075175;28;20054;-48
2023/12/19 03:18:05;;;;;;;1.60;1.50;;;20.80;46.20;;;;;;3072210;28;20043;-49
2023/12/19 03:19:36;;;;;;;1.70;1.60;;;20.80;46.00;;;;;;3072849;29;20058;-47
2023/12/19 03:21:08;;;;;;;1.77;1.65;;;20.80;46.00;;;;;;3072341;29;20043;-48
2023/12/19 03:22:38;;;;;;;1.42;1.33;;;20.80;46.00;;;;;;3072872;28;20090;-47
2023/12/19 03:24:11;;;;;;;1.60;1.50;;;20.90;46.00;;;;;;3072700;28;20604;-47
2023/12/19 03:25:42;;;;;;;2.28;1.77;;;20.80;46.00;;;;;;3072677;29;20885;-47
2023/12/19 03:27:14;;;;;;;1.50;1.40;;;20.80;46.00;;;;;;3076192;28;20050;-47
2023/12/19 03:28:44;;;;;;;1.90;1.63;;;20.70;46.00;;;;;;3074003;28;20491;-49
2023/12/19 03:30:16;;;;;;;1.60;1.50;;;20.70;46.10;;;;;;3077983;28;20051;-47
2023/12/19 03:31:47;;;;;;;2.05;1.63;;;20.70;46.10;;;;;;3070864;28;20058;-48
2023/12/19 03:33:19;;;;;;;1.75;1.55;;;20.70;46.20;;;;;;3072416;29;20050;-46
2023/12/19 03:34:50;;;;;;;1.50;1.40;;;20.80;46.00;;;;;;3072146;28;20130;-46
2023/12/19 03:36:21;;;;;;;2.67;1.55;;;20.80;45.90;;;;;;3077447;28;20907;-47
2023/12/19 03:37:52;;;;;;;1.90;1.80;;;20.70;45.90;;;;;;3077003;28;20051;-47
2023/12/19 03:39:25;;;;;;;1.67;1.58;;;20.70;46.00;;;;;;3076590;28;20070;-48
2023/12/19 03:40:57;;;;;;;2.10;1.88;;;20.70;46.00;;;;;;3074552;28;20051;-47
2023/12/19 03:42:29;;;;;;;1.77;1.52;;;20.80;45.90;;;;;;3073583;28;20078;-46
2023/12/19 03:43:59;;;;;;;1.52;1.42;;;20.70;46.00;;;;;;3071646;28;20070;-48
2023/12/19 03:45:31;;;;;;;1.60;1.50;;;20.70;46.00;;;;;;3074768;28;20042;-47
2023/12/19 03:47:02;;;;;;;1.75;1.50;;;20.60;46.10;;;;;;3070121;28;20083;-47
2023/12/19 03:48:34;;;;;;;1.70;1.60;;;20.60;46.00;;;;;;3068847;28;20486;-48
2023/12/19 03:50:06;;;;;;;1.98;1.50;;;20.60;46.00;;;;;;3071614;29;20047;-46
2023/12/19 03:51:37;;;;;;;1.52;1.42;;;20.60;46.10;;;;;;3066246;29;20039;-47
2023/12/19 03:53:08;;;;;;;1.52;1.42;;;20.60;46.10;;;;;;3072211;29;20051;-49
2023/12/19 03:54:41;;;;;;;1.60;1.48;;;20.70;46.00;;;;;;3070497;28;20263;-48
2023/12/19 03:56:11;;;;;;;1.42;1.27;;;20.60;46.00;;;;;;3072971;28;20468;-47
2023/12/19 03:57:43;;;;;;;1.60;1.40;;;20.60;46.20;;;;;;3073819;28;20058;-48
2023/12/19 03:59:14;;;;;;;1.65;1.50;;;20.60;46.00;;;;;;3074408;28;20710;-47
2023/12/19 04:00:45;;;;;;;1.50;1.40;;;20.60;46.10;;;;;;3073111;28;20039;-49
2023/12/19 04:02:16;;;;;;;1.80;1.52;;;20.60;46.00;;;;;;3072263;28;20055;-47
2023/12/19 04:03:48;;;;;;;1.33;1.23;;;20.60;46.10;;;;;;3070131;28;20055;-49
2023/12/19 04:05:18;;;;;;;1.60;1.50;;;20.70;46.10;;;;;;3072224;29;20050;-45
2023/12/19 04:06:50;;;;;;;1.50;1.40;;;20.70;46.20;;;;;;3072683;28;20716;-49
2023/12/19 04:08:20;;;;;;;1.40;1.30;;;20.90;46.00;;;;;;3076189;28;20055;-48
2023/12/19 04:09:53;;;;;;;1.30;1.20;;;20.90;45.90;;;;;;3078352;28;20043;-48
2023/12/19 04:11:24;;;;;;;1.60;1.33;;;21.20;45.70;;;;;;3075508;28;20417;-49
2023/12/19 04:12:56;;;;;;;1.45;1.35;;;21.20;45.50;;;;;;3074528;28;20043;-47
2023/12/19 04:14:27;;;;;;;1.52;1.42;;;21.30;45.50;;;;;;3073303;28;20054;-46
2023/12/19 04:15:58;;;;;;;1.23;1.13;;;21.50;45.50;;;;;;3071016;28;20047;-48
2023/12/19 04:17:29;;;;;;;1.42;1.33;;;21.50;45.40;;;;;;3072322;28;20054;-48
2023/12/19 04:19:00;;;;;;;1.63;1.30;;;21.50;45.50;;;;;;3073143;28;20050;-47
2023/12/19 04:20:31;;;;;;;1.27;1.17;;;21.70;45.40;;;;;;3070115;28;20051;-47
2023/12/19 04:22:03;;;;;;;1.20;1.10;;;21.70;45.30;;;;;;3075572;28;20405;-46
2023/12/19 04:23:34;;;;;;;1.35;1.25;;;21.90;45.20;;;;;;3073476;28;20621;-47
2023/12/19 04:25:08;;;;;;;1.35;1.20;;;21.90;45.10;;;;;;3071371;28;20134;-48
2023/12/19 04:26:41;;;;;;;1.27;1.10;;;22.00;45.10;;;;;;3071123;28;20051;-46
2023/12/19 04:28:12;;;;;;;1.27;1.17;;;22.10;44.90;;;;;;3074040;28;20043;-50
2023/12/19 04:29:45;;;;;;;1.20;1.10;;;22.20;44.90;;;;;;3072890;28;20130;-47
2023/12/19 04:31:16;;;;;;;1.20;1.10;;;22.20;45.00;;;;;;3072629;28;20055;-47
2023/12/19 04:32:47;;;;;;;1.20;1.10;;;22.20;44.90;;;;;;3068520;29;20058;-46
2023/12/19 04:34:18;;;;;;;1.30;1.20;;;22.20;44.90;;;;;;3067017;28;20055;-49
2023/12/19 04:35:50;;;;;;;1.10;1.00;;;22.30;44.90;;;;;;3067225;29;20052;-46
2023/12/19 04:37:21;;;;;;;1.15;1.08;;;22.30;44.90;;;;;;3074372;28;20047;-45
2023/12/19 04:38:53;;;;;;;1.17;1.08;;;22.30;44.90;;;;;;3078084;28;20047;-50
2023/12/19 04:40:25;;;;;;;1.00;1.00;;;22.50;44.80;;;;;;3077204;28;20050;-47
2023/12/19 04:41:59;;;;;;;2.63;1.20;;;22.50;44.80;;;;;;3069897;28;20486;-45
2023/12/19 04:43:29;;;;;;;1.17;1.08;;;22.40;44.80;;;;;;3071822;28;20330;-48
2023/12/19 04:45:01;;;;;;;0.95;0.90;;;22.40;44.90;;;;;;3074708;28;20074;-47
2023/12/19 04:46:31;;;;;;;0.80;0.80;;;22.40;45.10;;;;;;3073400;28;20058;-48
2023/12/19 04:48:04;;;;;;;1.08;1.00;;;22.40;45.30;;;;;;3074177;28;20043;-47
2023/12/19 04:49:34;;;;;;;1.40;0.90;;;22.40;45.40;;;;;;3072594;28;20082;-47
2023/12/19 04:51:06;;;;;;;1.00;1.00;;;22.50;45.40;;;;;;3071268;28;20526;-46
2023/12/19 04:52:36;;;;;;;1.27;1.10;;;22.50;45.50;;;;;;3070636;28;20075;-47
2023/12/19 04:54:08;;;;;;;0.90;0.90;;;22.50;45.50;;;;;;3068124;28;20047;-48
2023/12/19 04:55:40;;;;;;;0.93;0.90;;;22.60;45.40;;;;;;3073851;28;20058;-47
2023/12/19 04:57:12;;;;;;;1.00;0.90;;;22.70;45.40;;;;;;3072690;28;20043;-47
2023/12/19 04:58:44;;;;;;;1.20;1.10;;;22.70;45.40;;;;;;3069326;28;20071;-48
2023/12/19 05:00:16;;;;;;;1.00;0.90;;;22.80;45.30;;;;;;3074155;28;20035;-49
2023/12/19 05:01:47;;;;;;;1.25;0.90;;;22.80;45.20;;;;;;3072264;28;20418;-47
2023/12/19 05:03:18;;;;;;;1.05;0.95;;;22.90;45.20;;;;;;3069395;29;20043;-47
2023/12/19 05:04:49;;;;;;;0.85;0.85;;;22.90;45.20;;;;;;3066237;29;20109;-48
2023/12/19 05:06:21;;;;;;;1.00;1.00;;;23.00;45.00;;;;;;3067680;29;20051;-46
2023/12/19 05:07:51;;;;;;;0.90;0.90;;;23.10;44.90;;;;;;3068756;28;20082;-47
2023/12/19 05:09:23;;;;;;;1.00;0.90;;;23.10;45.00;;;;;;3068933;28;20047;-49
2023/12/19 05:10:55;;;;;;;1.17;0.90;;;23.10;45.00;;;;;;3072513;28;20094;-49
2023/12/19 05:12:26;;;;;;;1.15;0.88;;;23.00;45.10;;;;;;3070498;28;20071;-50
2023/12/19 05:13:57;;;;;;;0.90;0.90;;;23.00;45.20;;;;;;3073374;28;20055;-46
2023/12/19 05:15:29;;;;;;;0.80;0.80;;;23.00;45.20;;;;;;3074261;28;20047;-48
2023/12/19 05:17:01;;;;;;;0.77;0.77;;;22.90;45.20;;;;;;3075140;28;20054;-48
2023/12/19 05:18:33;;;;;;;0.75;0.75;;;23.00;45.10;;;;;;3074642;28;20082;-48
2023/12/19 05:20:05;;;;;;;0.80;0.80;;;22.90;45.20;;;;;;3074298;28;20098;-48
2023/12/19 05:21:38;;;;;;;0.85;0.70;;;23.00;45.20;;;;;;3069906;28;20070;-48
2023/12/19 05:23:08;;;;;;;0.80;0.80;;;23.00;45.20;;;;;;3069415;29;20065;-48
2023/12/19 05:24:42;;;;;;;0.70;0.70;;;23.10;45.30;;;;;;3067210;28;20058;-48
2023/12/19 05:26:14;;;;;;;0.75;0.75;;;23.10;45.30;;;;;;3069559;28;20082;-48
2023/12/19 05:27:46;;;;;;;1.00;0.88;;;23.10;45.40;;;;;;3069419;28;20106;-48
2023/12/19 05:29:16;;;;;;;0.98;0.90;;;23.10;45.30;;;;;;3071746;28;20043;-46
2023/12/19 05:30:48;;;;;;;0.80;0.80;;;23.10;45.40;;;;;;3073318;28;20512;-47
2023/12/19 05:32:19;;;;;;;0.80;0.80;;;23.20;45.40;;;;;;3070601;28;20043;-47
2023/12/19 05:33:51;;;;;;;0.80;0.80;;;23.30;45.40;;;;;;3066750;28;20063;-46
2023/12/19 05:35:21;;;;;;;1.08;0.90;;;23.30;45.30;;;;;;3070507;28;20085;-48
2023/12/19 05:36:53;;;;;;;1.08;0.98;;;23.40;45.30;;;;;;3070883;28;20056;-49
2023/12/19 05:38:24;;;;;;;1.02;0.88;;;23.40;45.20;;;;;;3067107;28;20509;-48
2023/12/19 05:39:56;;;;;;;0.80;0.80;;;23.40;45.30;;;;;;3069431;28;20047;-48
2023/12/19 05:41:28;;;;;;;0.80;0.80;;;23.40;45.30;;;;;;3071953;29;20837;-46
2023/12/19 05:42:59;;;;;;;0.80;0.80;;;23.40;45.20;;;;;;3066168;28;20294;-48
2023/12/19 05:44:30;;;;;;;0.70;0.70;;;23.50;45.40;;;;;;3069357;29;20058;-48
2023/12/19 05:46:02;;;;;;;0.80;0.80;;;23.40;45.30;;;;;;3067627;29;20055;-50
2023/12/19 05:47:33;;;;;;;0.80;0.80;;;23.50;45.20;;;;;;3065800;28;20058;-46
2023/12/19 05:49:05;;;;;;;0.73;0.73;;;23.50;45.30;;;;;;3067658;28;20049;-49
2023/12/19 05:50:36;;;;;;;0.80;0.80;;;23.50;45.40;;;;;;3068683;28;20063;-48
2023/12/19 05:52:07;;;;;;;0.80;0.80;;;23.50;45.40;;;;;;3070447;29;20411;-48
2023/12/19 05:53:38;;;;;;;0.80;0.70;;;23.50;45.50;;;;;;3070175;28;20047;-50
2023/12/19 05:55:10;;;;;;;0.77;0.77;;;23.50;45.50;;;;;;3069817;28;20073;-47
2023/12/19 05:56:42;;;;;;;0.82;0.70;;;23.50;45.60;;;;;;3071793;28;20047;-47
2023/12/19 05:58:13;;;;;;;0.70;0.70;;;23.50;45.50;;;;;;3070579;28;20055;-48
2023/12/19 05:59:44;;;;;;;0.70;0.70;;;23.60;45.50;;;;;;3071447;28;20438;-48
2023/12/19 06:01:15;;;;;;;0.65;0.65;;;23.60;45.50;;;;;;3072379;28;20046;-48
2023/12/19 06:02:48;;;;;;;0.73;0.73;;;23.40;45.60;;;;;;3068667;28;20047;-47
2023/12/19 06:04:20;;;;;;;;;;;23.20;46.00;;;;;;3068332;29;20133;-49
2023/12/19 06:05:50;;;;;;;0.80;0.80;;;23.10;46.30;;;;;;3069274;28;19922;-48
2023/12/19 06:07:22;;;;;;;0.70;0.70;;;23.00;46.50;;;;;;3066849;28;20046;-47
2023/12/19 06:08:53;;;;;;;0.70;0.70;;;23.10;46.60;;;;;;3068633;28;20075;-47
2023/12/19 06:10:24;;;;;;;1.17;0.80;;;23.10;46.50;;;;;;3069625;28;20478;-46
2023/12/19 06:11:56;;;;;;;0.65;0.65;;;23.20;46.30;;;;;;3067585;28;20044;-48
2023/12/19 06:13:29;;;;;;;0.70;0.70;;;23.20;46.10;;;;;;3065171;29;20055;-49
2023/12/19 06:15:00;;;;;;;0.60;0.60;;;23.20;46.00;;;;;;3069940;28;20058;-48
2023/12/19 06:16:31;;;;;;;0.60;0.60;;;23.20;46.10;;;;;;3069681;28;20398;-48
2023/12/19 06:18:02;;;;;;;0.70;0.70;;;23.20;45.90;;;;;;3067430;28;20490;-45
2023/12/19 06:19:34;;;;;;;1.42;0.90;;;23.20;46.00;;;;;;3054880;29;20548;-46
2023/12/19 06:21:05;;;;;;;0.70;0.70;;;23.30;45.80;;;;;;3072162;28;20055;-47
2023/12/19 06:22:36;;;;;;;0.80;0.70;;;23.30;45.60;;;;;;3067612;28;20434;-47
2023/12/19 06:24:08;;;;;;;0.80;0.80;;;23.30;45.60;;;;;;3069230;28;20058;-46
2023/12/19 06:25:40;;;;;;;0.65;0.65;;;23.30;46.10;;;;;;3072322;28;20182;-47
2023/12/19 06:27:15;;;;;;;1.63;0.70;;;23.40;45.40;;;;;;3072060;28;20078;-47
2023/12/19 06:28:47;;;;;;;8.60;1.33;;;23.30;45.40;;;;;;3071356;28;20058;-48
2023/12/19 06:30:18;;;;;;;4.63;1.30;;;23.30;45.70;;;;;;3067438;28;20059;-48
2023/12/19 06:31:49;;;;;;;8.07;1.70;;;23.30;45.70;;;;;;3071900;28;20531;-48
2023/12/19 06:33:20;;;;;;;3.00;1.40;;;23.10;46.40;;;;;;3073555;28;20055;-47
2023/12/19 06:34:55;;;;;;;9.27;1.83;;;23.10;46.60;;;;;;3073107;28;20497;-47
2023/12/19 06:36:29;;;;;;;8.38;2.03;;;23.10;46.50;;;;;;3072278;28;20073;-47
2023/12/19 06:38:01;;;;;;;5.20;1.88;;;23.20;46.50;;;;;;3069360;29;20410;-50
2023/12/19 06:39:31;;;;;;;4.55;1.40;;;23.10;46.40;;;;;;3068470;28;20051;-49
2023/12/19 06:41:03;;;;;;;3.97;1.42;;;23.20;46.30;;;;;;3067581;29;20058;-47
2023/12/19 06:42:35;;;;;;;5.40;1.58;;;23.20;46.30;;;;;;3072170;28;20051;-50
2023/12/19 06:44:07;;;;;;;9.88;1.92;;;23.10;46.40;;;;;;3072538;28;20075;-48
2023/12/19 06:45:37;;;;;;;5.07;1.42;;;23.10;46.70;;;;;;3071745;28;20070;-48
2023/12/19 06:47:09;;;;;;;8.65;1.63;;;23.10;46.60;;;;;;3069766;28;20043;-52
2023/12/19 06:48:41;;;;;;;7.75;1.80;;;23.10;46.60;;;;;;3069774;28;20054;-47
2023/12/19 06:50:13;;;;;;;5.32;1.73;;;23.00;46.90;;;;;;3070232;28;20047;-46
2023/12/19 06:51:43;;;;;;;12.35;1.63;;;23.00;47.20;;;;;;3071161;28;20501;-51
2023/12/19 06:53:15;;;;;;;9.07;2.17;;;23.00;47.40;;;;;;3074546;28;20102;-50
2023/12/19 06:54:46;;;;;;;11.35;2.15;;;22.90;47.50;;;;;;3068577;28;20059;-48
2023/12/19 06:56:17;;;;;;;13.52;2.92;;;23.00;47.70;;;;;;3068813;29;20054;-50
2023/12/19 06:57:49;;;;;;;10.50;2.10;;;22.90;48.00;;;;;;3068316;28;20142;-48
2023/12/19 06:59:21;;;;;;;9.85;2.85;;;22.90;48.50;;;;;;3070212;28;20938;-47
2023/12/19 07:00:52;;;;;;;20.83;2.40;;;22.90;48.70;;;;;;3067313;28;20051;-51
2023/12/19 07:02:23;;;;;;;9.90;2.10;;;22.80;49.10;;;;;;3069463;28;20722;-48
2023/12/19 07:03:55;;;;;;;9.57;2.28;;;22.70;48.80;;;;;;3070876;28;20058;-48
2023/12/19 07:05:26;;;;;;;11.20;2.22;;;22.60;49.60;;;;;;3072130;28;20043;-47
2023/12/19 07:06:57;;;;;;;12.25;2.17;;;22.60;49.60;;;;;;3070584;28;20047;-49
2023/12/19 07:08:31;;;;;;;6.43;1.98;;;22.60;50.00;;;;;;3073354;28;20494;-48
2023/12/19 07:10:04;;;;;;;6.75;1.90;;;22.60;50.00;;;;;;3071210;28;20055;-52
2023/12/19 07:11:39;;;;;;;7.82;2.10;;;22.50;50.10;;;;;;3068068;28;20054;-48
2023/12/19 07:13:12;;;;;;;5.70;2.00;;;22.60;50.20;;;;;;3070460;29;20564;-48
2023/12/19 07:14:43;;;;;;;11.70;1.95;;;22.50;50.20;;;;;;3072396;28;20047;-48
2023/12/19 07:16:14;;;;;;;13.75;2.45;;;22.60;50.10;;;;;;3067915;28;20047;-46
2023/12/19 07:17:46;;;;;;;2.83;1.23;;;22.60;50.00;;;;;;3068004;29;20047;-48
2023/12/19 07:19:16;;;;;;;5.28;1.98;;;22.50;49.80;;;;;;3070062;29;20414;-47
2023/12/19 07:20:48;;;;;;;4.15;1.48;;;22.50;49.60;;;;;;3068276;28;20059;-48
2023/12/19 07:22:19;;;;;;;5.13;1.48;;;22.50;49.50;;;;;;3069222;29;20060;-48
2023/12/19 07:23:51;;;;;;;6.53;1.80;;;22.60;49.60;;;;;;3070751;29;20557;-48
2023/12/19 07:25:22;;;;;;;5.35;1.60;;;22.50;49.80;;;;;;3072007;28;20053;-49
2023/12/19 07:26:53;;;;;;;6.25;1.70;;;22.40;50.00;;;;;;3067329;29;20074;-47
2023/12/19 07:28:26;;;;;;;5.35;1.50;;;22.30;50.00;;;;;;3070453;28;20051;-47
2023/12/19 07:29:57;;;;;;;3.58;1.30;;;22.30;50.10;;;;;;3070839;28;20063;-49
2023/12/19 07:31:30;;;;;;;4.78;1.40;;;22.30;50.00;;;;;;3070788;28;20071;-49
2023/12/19 07:33:02;;;;;;;4.05;1.42;;;22.30;49.90;;;;;;3071005;29;20134;-48
2023/12/19 07:34:33;;;;;;;3.65;1.73;;;22.30;49.90;;;;;;3071704;28;20048;-47
2023/12/19 07:36:06;;;;;;;5.22;1.65;;;22.30;49.90;;;;;;3071395;29;20093;-48
2023/12/19 07:37:36;;;;;;;3.33;1.35;;;22.20;49.90;;;;;;3070165;28;20465;-47
2023/12/19 07:39:10;;;;;;;3.25;1.40;;;22.20;49.90;;;;;;3071527;28;20052;-47
2023/12/19 07:40:40;;;;;;;3.38;1.50;;;22.10;49.90;;;;;;3068821;29;20081;-47
2023/12/19 07:42:12;;;;;;;3.38;1.20;;;22.20;50.00;;;;;;3070363;29;20056;-48
2023/12/19 07:43:44;;;;;;;4.47;1.38;;;22.20;49.90;;;;;;3069314;28;20055;-48
2023/12/19 07:45:16;;;;;;;2.45;1.20;;;22.10;49.70;;;;;;3070730;29;20075;-48
2023/12/19 07:46:48;;;;;;;3.03;1.37;;;22.10;49.70;;;;;;3068612;28;20059;-49
2023/12/19 07:48:18;;;;;;;5.88;1.33;;;22.10;49.60;;;;;;3070857;29;20653;-48
2023/12/19 07:49:50;;;;;;;2.50;1.00;;;22.10;49.70;;;;;;3070926;28;20143;-47
2023/12/19 07:51:21;;;;;;;3.90;1.50;;;22.10;49.70;;;;;;3071218;29;20437;-48
2023/12/19 07:52:53;;;;;;;2.65;1.27;;;22.00;49.50;;;;;;3066255;28;20055;-49
2023/12/19 07:54:24;;;;;;;1.40;1.05;;;22.00;49.30;;;;;;3071503;29;20051;-48
2023/12/19 07:55:58;;;;;;;3.55;1.35;;;22.00;49.40;;;;;;3070990;28;20047;-50
2023/12/19 07:57:29;;;;;;;3.53;1.60;;;21.90;49.60;;;;;;3071007;29;20055;-50